createdAt,value
2015-09-19T00:00:00.643Z,74152
2015-09-19T00:00:13.049Z,74150
2015-09-19T00:00:25.455Z,74151
2015-09-19T00:00:37.879Z,74151
2015-09-19T00:00:50.301Z,74156
2015-09-19T00:01:02.723Z,74145
2015-09-19T00:01:15.160Z,74149
2015-09-19T00:01:27.598Z,74154
2015-09-19T00:01:40.022Z,74151
2015-09-19T00:01:52.428Z,74149
2015-09-19T00:02:04.834Z,74153
2015-09-19T00:02:17.225Z,74150
2015-09-19T00:02:28.897Z,74148
2015-09-19T00:02:41.289Z,74150
2015-09-19T00:02:53.696Z,74149
2015-09-19T00:03:06.086Z,74146
2015-09-19T00:03:18.477Z,74145
2015-09-19T00:03:30.883Z,74150
2015-09-19T00:03:43.291Z,74149
2015-09-19T00:03:55.541Z,74149
2015-09-19T00:04:07.963Z,74150
2015-09-19T00:04:20.385Z,74149
2015-09-19T00:04:32.807Z,74146
2015-09-19T00:04:45.247Z,74151
2015-09-19T00:04:57.684Z,74149
2015-09-19T00:05:10.075Z,74150
2015-09-19T00:05:22.465Z,74148
2015-09-19T00:05:34.856Z,74147
2015-09-19T00:05:47.264Z,74150
2015-09-19T00:05:59.655Z,74147
2015-09-19T00:06:12.061Z,74146
2015-09-19T00:06:24.452Z,74148
2015-09-19T00:06:36.858Z,74146
2015-09-19T00:06:49.251Z,74148
2015-09-19T00:07:01.657Z,74146
2015-09-19T00:07:14.063Z,74142
2015-09-19T00:07:26.469Z,74145
2015-09-19T00:07:38.891Z,74143
2015-09-19T00:07:51.315Z,74145
2015-09-19T00:08:03.737Z,74144
2015-09-19T00:08:16.128Z,74143
2015-09-19T00:08:28.518Z,74140
2015-09-19T00:08:40.909Z,74143
2015-09-19T00:08:53.317Z,74142
2015-09-19T00:09:05.567Z,74144
2015-09-19T00:09:17.239Z,74139
2015-09-19T00:09:28.942Z,74141
2015-09-19T00:09:41.333Z,74143
2015-09-19T00:09:53.725Z,74139
2015-09-19T00:10:06.132Z,74140
2015-09-19T00:10:18.538Z,74139
2015-09-19T00:10:30.960Z,74142
2015-09-19T00:10:43.382Z,74142
2015-09-19T00:10:55.804Z,74142
2015-09-19T00:11:08.226Z,74144
2015-09-19T00:11:20.648Z,74144
2015-09-19T00:11:33.039Z,74143
2015-09-19T00:11:45.429Z,74144
2015-09-19T00:11:57.839Z,74141
2015-09-19T00:12:10.229Z,74140
2015-09-19T00:12:22.620Z,74144
2015-09-19T00:12:35.026Z,74141
2015-09-19T00:12:47.106Z,74140
2015-09-19T00:12:59.497Z,74148
2015-09-19T00:13:11.903Z,74145
2015-09-19T00:13:24.309Z,74147
2015-09-19T00:13:36.747Z,74142
2015-09-19T00:13:49.171Z,74146
2015-09-19T00:14:01.608Z,74142
2015-09-19T00:14:14.030Z,74143
2015-09-19T00:14:26.421Z,74146
2015-09-19T00:14:38.811Z,74143
2015-09-19T00:14:51.204Z,74139
2015-09-19T00:15:03.595Z,74148
2015-09-19T00:15:15.985Z,74145
2015-09-19T00:15:28.376Z,74142
2015-09-19T00:15:40.813Z,74143
2015-09-19T00:15:53.221Z,74142
2015-09-19T00:16:05.627Z,74142
2015-09-19T00:16:18.064Z,74144
2015-09-19T00:16:30.486Z,74142
2015-09-19T00:16:42.908Z,74143
2015-09-19T00:16:55.333Z,74142
2015-09-19T00:17:07.771Z,74146
2015-09-19T00:17:20.161Z,74144
2015-09-19T00:17:32.583Z,74146
2015-09-19T00:17:44.974Z,74142
2015-09-19T00:17:57.365Z,74143
2015-09-19T00:18:09.756Z,74144
2015-09-19T00:18:22.162Z,74143
2015-09-19T00:18:34.553Z,74146
2015-09-19T00:18:46.959Z,74144
2015-09-19T00:18:59.353Z,74147
2015-09-19T00:19:11.775Z,74148
2015-09-19T00:19:24.181Z,74141
2015-09-19T00:19:36.587Z,74141
2015-09-19T00:19:49.009Z,74146
2015-09-19T00:20:01.447Z,74145
2015-09-19T00:20:13.885Z,74144
2015-09-19T00:20:26.291Z,74146
2015-09-19T00:20:38.682Z,74142
2015-09-19T00:20:51.072Z,74145
2015-09-19T00:21:03.465Z,74145
2015-09-19T00:21:15.871Z,74143
2015-09-19T00:21:28.262Z,74143
2015-09-19T00:21:40.746Z,74144
2015-09-19T00:21:53.137Z,74145
2015-09-19T00:22:05.577Z,74144
2015-09-19T00:22:17.968Z,74145
2015-09-19T00:22:30.374Z,74142
2015-09-19T00:22:42.781Z,74145
2015-09-19T00:22:54.499Z,74141
2015-09-19T00:23:06.907Z,74139
2015-09-19T00:23:19.344Z,74143
2015-09-19T00:23:31.625Z,74144
2015-09-19T00:23:44.094Z,74141
2015-09-19T00:23:56.485Z,74141
2015-09-19T00:24:08.877Z,74141
2015-09-19T00:24:20.549Z,74139
2015-09-19T00:24:32.955Z,74136
2015-09-19T00:24:45.346Z,74140
2015-09-19T00:24:57.752Z,74141
2015-09-19T00:25:10.161Z,74142
2015-09-19T00:25:22.551Z,74141
2015-09-19T00:25:34.942Z,74141
2015-09-19T00:25:47.332Z,74138
2015-09-19T00:25:59.739Z,74140
2015-09-19T00:26:12.147Z,74142
2015-09-19T00:26:24.553Z,74140
2015-09-19T00:26:36.975Z,74142
2015-09-19T00:26:49.413Z,74142
2015-09-19T00:27:01.850Z,74144
2015-09-19T00:27:14.291Z,74142
2015-09-19T00:27:26.728Z,74139
2015-09-19T00:27:39.134Z,74142
2015-09-19T00:27:51.541Z,74145
2015-09-19T00:28:03.931Z,74141
2015-09-19T00:28:16.323Z,74141
2015-09-19T00:28:28.729Z,74138
2015-09-19T00:28:41.120Z,74139
2015-09-19T00:28:53.510Z,74138
2015-09-19T00:29:05.901Z,74139
2015-09-19T00:29:18.309Z,74136
2015-09-19T00:29:30.715Z,74136
2015-09-19T00:29:43.122Z,74140
2015-09-19T00:29:55.544Z,74138
2015-09-19T00:30:07.967Z,74140
2015-09-19T00:30:20.389Z,74138
2015-09-19T00:30:32.811Z,74138
2015-09-19T00:30:45.264Z,74141
2015-09-19T00:30:57.655Z,74138
2015-09-19T00:31:10.048Z,74135
2015-09-19T00:31:22.438Z,74141
2015-09-19T00:31:34.844Z,74139
2015-09-19T00:31:47.235Z,74135
2015-09-19T00:31:59.626Z,74137
2015-09-19T00:32:12.034Z,74135
2015-09-19T00:32:24.425Z,74138
2015-09-19T00:32:36.815Z,74139
2015-09-19T00:32:49.221Z,74140
2015-09-19T00:33:01.628Z,74138
2015-09-19T00:33:14.036Z,74135
2015-09-19T00:33:26.458Z,74135
2015-09-19T00:33:38.864Z,74138
2015-09-19T00:33:51.286Z,74137
2015-09-19T00:34:03.692Z,74138
2015-09-19T00:34:16.085Z,74138
2015-09-19T00:34:28.460Z,74137
2015-09-19T00:34:40.866Z,74137
2015-09-19T00:34:53.085Z,74136
2015-09-19T00:35:05.475Z,74136
2015-09-19T00:35:17.884Z,74129
2015-09-19T00:35:30.274Z,74138
2015-09-19T00:35:42.665Z,74137
2015-09-19T00:35:54.352Z,74136
2015-09-19T00:36:06.790Z,74136
2015-09-19T00:36:19.198Z,74136
2015-09-19T00:36:31.604Z,74132
2015-09-19T00:36:44.042Z,74133
2015-09-19T00:36:56.464Z,74134
2015-09-19T00:37:08.901Z,74139
2015-09-19T00:37:21.294Z,74136
2015-09-19T00:37:33.700Z,74135
2015-09-19T00:37:46.091Z,74134
2015-09-19T00:37:58.481Z,74136
2015-09-19T00:38:10.903Z,74134
2015-09-19T00:38:23.296Z,74135
2015-09-19T00:38:35.702Z,74133
2015-09-19T00:38:48.108Z,74136
2015-09-19T00:39:00.499Z,74134
2015-09-19T00:39:12.905Z,74136
2015-09-19T00:39:25.313Z,74138
2015-09-19T00:39:37.719Z,74137
2015-09-19T00:39:50.000Z,74133
2015-09-19T00:40:02.438Z,74136
2015-09-19T00:40:14.844Z,74135
2015-09-19T00:40:27.237Z,74135
2015-09-19T00:40:39.628Z,74134
2015-09-19T00:40:52.019Z,74140
2015-09-19T00:41:04.425Z,74134
2015-09-19T00:41:16.800Z,74135
2015-09-19T00:41:29.207Z,74133
2015-09-19T00:41:41.598Z,74133
2015-09-19T00:41:54.004Z,74133
2015-09-19T00:42:06.410Z,74134
2015-09-19T00:42:18.848Z,74134
2015-09-19T00:42:31.240Z,74131
2015-09-19T00:42:43.647Z,74133
2015-09-19T00:42:56.053Z,74132
2015-09-19T00:43:08.490Z,74133
2015-09-19T00:43:20.928Z,74134
2015-09-19T00:43:33.367Z,74133
2015-09-19T00:43:45.789Z,74133
2015-09-19T00:43:58.211Z,74136
2015-09-19T00:44:10.602Z,74136
2015-09-19T00:44:22.992Z,74133
2015-09-19T00:44:35.402Z,74133
2015-09-19T00:44:47.792Z,74134
2015-09-19T00:45:00.183Z,74138
2015-09-19T00:45:12.589Z,74134
2015-09-19T00:45:24.980Z,74137
2015-09-19T00:45:37.388Z,74133
2015-09-19T00:45:49.060Z,74135
2015-09-19T00:46:01.482Z,74137
2015-09-19T00:46:13.888Z,74138
2015-09-19T00:46:26.310Z,74135
2015-09-19T00:46:38.775Z,74134
2015-09-19T00:46:51.197Z,74135
2015-09-19T00:47:03.634Z,74137
2015-09-19T00:47:16.056Z,74135
2015-09-19T00:47:27.759Z,74137
2015-09-19T00:47:40.197Z,74135
2015-09-19T00:47:52.587Z,74138
2015-09-19T00:48:04.994Z,74135
2015-09-19T00:48:17.384Z,74133
2015-09-19T00:48:29.775Z,74134
2015-09-19T00:48:42.229Z,74130
2015-09-19T00:48:54.620Z,74136
2015-09-19T00:49:07.010Z,74135
2015-09-19T00:49:19.432Z,74134
2015-09-19T00:49:31.886Z,74135
2015-09-19T00:49:44.292Z,74134
2015-09-19T00:49:56.729Z,74130
2015-09-19T00:50:09.151Z,74136
2015-09-19T00:50:21.573Z,74133
2015-09-19T00:50:34.027Z,74135
2015-09-19T00:50:46.418Z,74134
2015-09-19T00:50:58.668Z,74134
2015-09-19T00:51:11.059Z,74136
2015-09-19T00:51:23.449Z,74133
2015-09-19T00:51:35.859Z,74132
2015-09-19T00:51:48.281Z,74129
2015-09-19T00:52:00.703Z,74136
2015-09-19T00:52:13.109Z,74135
2015-09-19T00:52:25.531Z,74135
2015-09-19T00:52:37.971Z,74136
2015-09-19T00:52:50.392Z,74132
2015-09-19T00:53:02.830Z,74134
2015-09-19T00:53:15.221Z,74132
2015-09-19T00:53:27.627Z,74134
2015-09-19T00:53:40.035Z,74133
2015-09-19T00:53:52.426Z,74136
2015-09-19T00:54:04.817Z,74136
2015-09-19T00:54:17.207Z,74134
2015-09-19T00:54:29.598Z,74136
2015-09-19T00:54:42.007Z,74136
2015-09-19T00:54:54.428Z,74136
2015-09-19T00:55:06.835Z,74132
2015-09-19T00:55:19.241Z,74133
2015-09-19T00:55:31.647Z,74135
2015-09-19T00:55:44.088Z,74135
2015-09-19T00:55:56.526Z,74133
2015-09-19T00:56:08.947Z,74136
2015-09-19T00:56:21.369Z,74135
2015-09-19T00:56:33.776Z,74135
2015-09-19T00:56:46.173Z,74132
2015-09-19T00:56:58.564Z,74132
2015-09-19T00:57:10.954Z,74135
2015-09-19T00:57:23.376Z,74136
2015-09-19T00:57:35.767Z,74136
2015-09-19T00:57:48.166Z,74136
2015-09-19T00:58:00.572Z,74135
2015-09-19T00:58:12.962Z,74132
2015-09-19T00:58:25.369Z,74131
2015-09-19T00:58:37.775Z,74132
2015-09-19T00:58:50.205Z,74132
2015-09-19T00:59:02.627Z,74137
2015-09-19T00:59:15.049Z,74134
2015-09-19T00:59:27.470Z,74134
2015-09-19T00:59:39.892Z,74135
2015-09-19T00:59:52.322Z,74135
2015-09-19T01:00:04.775Z,74133
2015-09-19T01:00:17.166Z,74132
2015-09-19T01:00:29.557Z,74133
2015-09-19T01:00:41.947Z,74132
2015-09-19T01:00:54.345Z,74135
2015-09-19T01:01:06.751Z,74131
2015-09-19T01:01:19.157Z,74132
2015-09-19T01:01:31.564Z,74132
2015-09-19T01:01:43.975Z,74136
2015-09-19T01:01:56.381Z,74133
2015-09-19T01:02:08.803Z,74133
2015-09-19T01:02:21.225Z,74133
2015-09-19T01:02:33.647Z,74135
2015-09-19T01:02:46.041Z,74135
2015-09-19T01:02:58.432Z,74133
2015-09-19T01:03:10.823Z,74130
2015-09-19T01:03:23.213Z,74134
2015-09-19T01:03:35.604Z,74134
2015-09-19T01:03:48.014Z,74128
2015-09-19T01:04:00.405Z,74132
2015-09-19T01:04:12.780Z,74131
2015-09-19T01:04:25.186Z,74129
2015-09-19T01:04:37.592Z,74128
2015-09-19T01:04:50.002Z,74130
2015-09-19T01:05:02.409Z,74131
2015-09-19T01:05:14.831Z,74129
2015-09-19T01:05:27.252Z,74132
2015-09-19T01:05:39.690Z,74133
2015-09-19T01:05:52.569Z,74132
2015-09-19T01:06:04.991Z,74129
2015-09-19T01:06:17.428Z,74129
2015-09-19T01:06:29.819Z,74130
2015-09-19T01:06:42.225Z,74130
2015-09-19T01:06:53.900Z,74130
2015-09-19T01:07:06.306Z,74130
2015-09-19T01:07:18.697Z,74130
2015-09-19T01:07:31.088Z,74127
2015-09-19T01:07:43.478Z,74130
2015-09-19T01:07:55.872Z,74130
2015-09-19T01:08:08.294Z,74130
2015-09-19T01:08:20.700Z,74131
2015-09-19T01:08:33.106Z,74130
2015-09-19T01:08:45.544Z,74129
2015-09-19T01:08:57.968Z,74127
2015-09-19T01:09:10.389Z,74129
2015-09-19T01:09:22.827Z,74130
2015-09-19T01:09:35.233Z,74130
2015-09-19T01:09:47.624Z,74127
2015-09-19T01:10:00.017Z,74129
2015-09-19T01:10:12.424Z,74131
2015-09-19T01:10:24.814Z,74130
2015-09-19T01:10:37.205Z,74127
2015-09-19T01:10:49.611Z,74130
2015-09-19T01:11:02.005Z,74128
2015-09-19T01:11:14.411Z,74128
2015-09-19T01:11:26.802Z,74127
2015-09-19T01:11:39.208Z,74132
2015-09-19T01:11:51.614Z,74128
2015-09-19T01:12:04.038Z,74126
2015-09-19T01:12:16.476Z,74127
2015-09-19T01:12:28.897Z,74129
2015-09-19T01:12:41.335Z,74127
2015-09-19T01:12:53.757Z,74129
2015-09-19T01:13:06.197Z,74128
2015-09-19T01:13:18.588Z,74131
2015-09-19T01:13:30.979Z,74128
2015-09-19T01:13:43.385Z,74131
2015-09-19T01:13:55.791Z,74128
2015-09-19T01:14:08.184Z,74129
2015-09-19T01:14:20.574Z,74132
2015-09-19T01:14:32.965Z,74130
2015-09-19T01:14:45.371Z,74128
2015-09-19T01:14:57.777Z,74133
2015-09-19T01:15:10.186Z,74129
2015-09-19T01:15:22.592Z,74129
2015-09-19T01:15:35.029Z,74132
2015-09-19T01:15:47.467Z,74132
2015-09-19T01:15:59.889Z,74129
2015-09-19T01:16:12.281Z,74131
2015-09-19T01:16:24.672Z,74130
2015-09-19T01:16:37.078Z,74129
2015-09-19T01:16:49.469Z,74131
2015-09-19T01:17:01.860Z,74130
2015-09-19T01:17:14.252Z,74128
2015-09-19T01:17:26.643Z,74128
2015-09-19T01:17:38.346Z,74131
2015-09-19T01:17:50.721Z,74130
2015-09-19T01:18:03.127Z,74126
2015-09-19T01:18:15.520Z,74129
2015-09-19T01:18:27.926Z,74130
2015-09-19T01:18:40.332Z,74130
2015-09-19T01:18:52.723Z,74130
2015-09-19T01:19:05.160Z,74126
2015-09-19T01:19:17.584Z,74130
2015-09-19T01:19:29.991Z,74130
2015-09-19T01:19:42.381Z,74127
2015-09-19T01:19:54.772Z,74129
2015-09-19T01:20:07.165Z,74128
2015-09-19T01:20:18.853Z,74128
2015-09-19T01:20:31.244Z,74129
2015-09-19T01:20:43.634Z,74128
2015-09-19T01:20:56.040Z,74127
2015-09-19T01:21:08.432Z,74130
2015-09-19T01:21:20.854Z,74127
2015-09-19T01:21:33.260Z,74130
2015-09-19T01:21:45.666Z,74125
2015-09-19T01:21:58.073Z,74123
2015-09-19T01:22:10.512Z,74129
2015-09-19T01:22:22.934Z,74123
2015-09-19T01:22:35.356Z,74128
2015-09-19T01:22:47.793Z,74128
2015-09-19T01:23:00.059Z,74128
2015-09-19T01:23:12.467Z,74127
2015-09-19T01:23:24.858Z,74128
2015-09-19T01:23:37.264Z,74131
2015-09-19T01:23:49.655Z,74129
2015-09-19T01:24:02.045Z,74128
2015-09-19T01:24:13.735Z,74130
2015-09-19T01:24:26.126Z,74125
2015-09-19T01:24:38.532Z,74131
2015-09-19T01:24:50.922Z,74126
2015-09-19T01:25:03.344Z,74128
2015-09-19T01:25:15.753Z,74130
2015-09-19T01:25:27.471Z,74128
2015-09-19T01:25:39.893Z,74130
2015-09-19T01:25:52.315Z,74131
2015-09-19T01:26:04.753Z,74128
2015-09-19T01:26:17.176Z,74131
2015-09-19T01:26:29.614Z,74130
2015-09-19T01:26:42.005Z,74127
2015-09-19T01:26:54.395Z,74127
2015-09-19T01:27:06.786Z,74130
2015-09-19T01:27:19.194Z,74129
2015-09-19T01:27:31.585Z,74130
2015-09-19T01:27:43.991Z,74130
2015-09-19T01:27:56.382Z,74129
2015-09-19T01:28:08.788Z,74131
2015-09-19T01:28:21.196Z,74128
2015-09-19T01:28:33.618Z,74129
2015-09-19T01:28:46.024Z,74129
2015-09-19T01:28:58.430Z,74130
2015-09-19T01:29:10.852Z,74131
2015-09-19T01:29:23.276Z,74127
2015-09-19T01:29:35.698Z,74130
2015-09-19T01:29:48.136Z,74134
2015-09-19T01:30:00.542Z,74127
2015-09-19T01:30:12.932Z,74129
2015-09-19T01:30:25.325Z,74129
2015-09-19T01:30:36.325Z,74127
2015-09-19T01:30:48.716Z,74132
2015-09-19T01:31:01.106Z,74131
2015-09-19T01:31:13.497Z,74128
2015-09-19T01:31:25.936Z,74127
2015-09-19T01:31:38.343Z,74129
2015-09-19T01:31:50.749Z,74127
2015-09-19T01:32:03.186Z,74124
2015-09-19T01:32:15.608Z,74123
2015-09-19T01:32:28.031Z,74125
2015-09-19T01:32:40.422Z,74124
2015-09-19T01:32:52.812Z,74128
2015-09-19T01:33:05.203Z,74129
2015-09-19T01:33:17.625Z,74127
2015-09-19T01:33:30.019Z,74124
2015-09-19T01:33:42.409Z,74126
2015-09-19T01:33:54.815Z,74127
2015-09-19T01:34:07.206Z,74125
2015-09-19T01:34:19.597Z,74124
2015-09-19T01:34:32.004Z,74126
2015-09-19T01:34:43.691Z,74127
2015-09-19T01:34:56.098Z,74123
2015-09-19T01:35:08.520Z,74129
2015-09-19T01:35:20.941Z,74125
2015-09-19T01:35:33.366Z,74127
2015-09-19T01:35:45.804Z,74124
2015-09-19T01:35:58.257Z,74126
2015-09-19T01:36:10.648Z,74123
2015-09-19T01:36:23.038Z,74124
2015-09-19T01:36:35.431Z,74129
2015-09-19T01:36:47.821Z,74124
2015-09-19T01:37:00.071Z,74124
2015-09-19T01:37:12.478Z,74125
2015-09-19T01:37:24.884Z,74127
2015-09-19T01:37:37.292Z,74125
2015-09-19T01:37:49.683Z,74125
2015-09-19T01:38:01.386Z,74126
2015-09-19T01:38:13.808Z,74125
2015-09-19T01:38:25.497Z,74124
2015-09-19T01:38:37.935Z,74127
2015-09-19T01:38:50.357Z,74125
2015-09-19T01:39:02.779Z,74125
2015-09-19T01:39:15.232Z,74124
2015-09-19T01:39:27.670Z,74125
2015-09-19T01:39:40.092Z,74125
2015-09-19T01:39:52.498Z,74125
2015-09-19T01:40:04.889Z,74124
2015-09-19T01:40:16.592Z,74128
2015-09-19T01:40:28.985Z,74126
2015-09-19T01:40:41.375Z,74125
2015-09-19T01:40:53.766Z,74126
2015-09-19T01:41:06.172Z,74123
2015-09-19T01:41:18.563Z,74127
2015-09-19T01:41:30.971Z,74125
2015-09-19T01:41:43.393Z,74128
2015-09-19T01:41:55.784Z,74126
2015-09-19T01:42:08.205Z,74126
2015-09-19T01:42:20.627Z,74129
2015-09-19T01:42:33.051Z,74127
2015-09-19T01:42:45.473Z,74125
2015-09-19T01:42:57.864Z,74130
2015-09-19T01:43:10.254Z,74128
2015-09-19T01:43:22.645Z,74124
2015-09-19T01:43:35.053Z,74126
2015-09-19T01:43:47.444Z,74127
2015-09-19T01:43:59.866Z,74125
2015-09-19T01:44:12.256Z,74124
2015-09-19T01:44:24.647Z,74128
2015-09-19T01:44:37.071Z,74126
2015-09-19T01:44:49.477Z,74127
2015-09-19T01:45:01.180Z,74127
2015-09-19T01:45:13.602Z,74126
2015-09-19T01:45:26.024Z,74128
2015-09-19T01:45:38.463Z,74124
2015-09-19T01:45:50.870Z,74127
2015-09-19T01:46:03.292Z,74129
2015-09-19T01:46:15.682Z,74126
2015-09-19T01:46:28.338Z,74129
2015-09-19T01:46:40.731Z,74126
2015-09-19T01:46:53.137Z,74123
2015-09-19T01:47:05.544Z,74127
2015-09-19T01:47:17.950Z,74131
2015-09-19T01:47:30.356Z,74126
2015-09-19T01:47:42.796Z,74127
2015-09-19T01:47:55.280Z,74131
2015-09-19T01:48:07.717Z,74129
2015-09-19T01:48:20.155Z,74125
2015-09-19T01:48:32.608Z,74130
2015-09-19T01:48:45.002Z,74126
2015-09-19T01:48:57.392Z,74123
2015-09-19T01:49:09.783Z,74129
2015-09-19T01:49:22.205Z,74127
2015-09-19T01:49:34.580Z,74126
2015-09-19T01:49:46.987Z,74127
2015-09-19T01:49:59.393Z,74124
2015-09-19T01:50:11.800Z,74128
2015-09-19T01:50:24.190Z,74128
2015-09-19T01:50:36.440Z,74127
2015-09-19T01:50:48.848Z,74124
2015-09-19T01:51:01.255Z,74127
2015-09-19T01:51:13.677Z,74126
2015-09-19T01:51:26.114Z,74133
2015-09-19T01:51:38.505Z,74127
2015-09-19T01:51:50.897Z,74127
2015-09-19T01:52:02.585Z,74127
2015-09-19T01:52:14.975Z,74127
2015-09-19T01:52:27.366Z,74126
2015-09-19T01:52:39.788Z,74127
2015-09-19T01:52:52.181Z,74122
2015-09-19T01:53:04.587Z,74129
2015-09-19T01:53:16.993Z,74129
2015-09-19T01:53:29.431Z,74129
2015-09-19T01:53:41.852Z,74125
2015-09-19T01:53:54.291Z,74129
2015-09-19T01:54:06.713Z,74122
2015-09-19T01:54:19.135Z,74126
2015-09-19T01:54:31.525Z,74128
2015-09-19T01:54:43.932Z,74126
2015-09-19T01:54:56.341Z,74131
2015-09-19T01:55:08.731Z,74125
2015-09-19T01:55:21.122Z,74129
2015-09-19T01:55:33.528Z,74130
2015-09-19T01:55:45.919Z,74120
2015-09-19T01:55:58.343Z,74127
2015-09-19T01:56:10.749Z,74129
2015-09-19T01:56:23.171Z,74128
2015-09-19T01:56:35.562Z,74129
2015-09-19T01:56:47.999Z,74125
2015-09-19T01:57:00.423Z,74124
2015-09-19T01:57:12.860Z,74132
2015-09-19T01:57:25.298Z,74127
2015-09-19T01:57:37.704Z,74125
2015-09-19T01:57:50.097Z,74135
2015-09-19T01:58:02.487Z,74128
2015-09-19T01:58:14.894Z,74129
2015-09-19T01:58:27.284Z,74133
2015-09-19T01:58:39.691Z,74126
2015-09-19T01:58:52.099Z,74132
2015-09-19T01:59:04.489Z,74125
2015-09-19T01:59:16.880Z,74130
2015-09-19T01:59:29.286Z,74135
2015-09-19T01:59:41.677Z,74127
2015-09-19T01:59:54.100Z,74133
2015-09-19T02:00:06.506Z,74128
2015-09-19T02:00:18.944Z,74127
2015-09-19T02:00:31.365Z,74133
2015-09-19T02:00:43.803Z,74125
2015-09-19T02:00:56.227Z,74138
2015-09-19T02:01:08.633Z,74129
2015-09-19T02:01:21.024Z,74132
2015-09-19T02:01:33.414Z,74129
2015-09-19T02:01:45.836Z,74124
2015-09-19T02:01:58.229Z,74134
2015-09-19T02:02:10.619Z,74125
2015-09-19T02:02:23.010Z,74134
2015-09-19T02:02:35.416Z,74124
2015-09-19T02:02:47.807Z,74134
2015-09-19T02:03:00.215Z,74127
2015-09-19T02:03:12.621Z,74124
2015-09-19T02:03:25.043Z,74126
2015-09-19T02:03:37.450Z,74120
2015-09-19T02:03:49.856Z,74131
2015-09-19T02:04:02.265Z,74126
2015-09-19T02:04:14.656Z,74123
2015-09-19T02:04:27.046Z,74128
2015-09-19T02:04:39.437Z,74127
2015-09-19T02:04:51.843Z,74126
2015-09-19T02:05:04.235Z,74127
2015-09-19T02:05:16.625Z,74124
2015-09-19T02:05:29.032Z,74121
2015-09-19T02:05:41.422Z,74131
2015-09-19T02:05:53.829Z,74122
2015-09-19T02:06:06.237Z,74120
2015-09-19T02:06:18.643Z,74126
2015-09-19T02:06:31.049Z,74119
2015-09-19T02:06:43.487Z,74124
2015-09-19T02:06:55.909Z,74121
2015-09-19T02:07:08.334Z,74125
2015-09-19T02:07:20.755Z,74128
2015-09-19T02:07:33.177Z,74119
2015-09-19T02:07:45.552Z,74131
2015-09-19T02:07:57.943Z,74124
2015-09-19T02:08:10.350Z,74128
2015-09-19T02:08:22.741Z,74125
2015-09-19T02:08:35.131Z,74123
2015-09-19T02:08:47.538Z,74134
2015-09-19T02:08:59.928Z,74121
2015-09-19T02:09:12.321Z,74127
2015-09-19T02:09:24.743Z,74123
2015-09-19T02:09:37.165Z,74122
2015-09-19T02:09:48.868Z,74122
2015-09-19T02:10:01.290Z,74126
2015-09-19T02:10:13.714Z,74117
2015-09-19T02:10:26.151Z,74121
2015-09-19T02:10:38.589Z,74123
2015-09-19T02:10:51.010Z,74128
2015-09-19T02:11:03.432Z,74117
2015-09-19T02:11:15.825Z,74126
2015-09-19T02:11:28.231Z,74123
2015-09-19T02:11:40.637Z,74119
2015-09-19T02:11:52.309Z,74123
2015-09-19T02:12:04.700Z,74121
2015-09-19T02:12:17.108Z,74119
2015-09-19T02:12:29.499Z,74121
2015-09-19T02:12:41.889Z,74118
2015-09-19T02:12:54.296Z,74127
2015-09-19T02:13:06.702Z,74118
2015-09-19T02:13:19.126Z,74118
2015-09-19T02:13:31.532Z,74126
2015-09-19T02:13:43.970Z,74118
2015-09-19T02:13:56.391Z,74123
2015-09-19T02:14:08.798Z,74119
2015-09-19T02:14:21.190Z,74123
2015-09-19T02:14:33.597Z,74125
2015-09-19T02:14:45.987Z,74119
2015-09-19T02:14:58.378Z,74129
2015-09-19T02:15:10.784Z,74115
2015-09-19T02:15:23.193Z,74119
2015-09-19T02:15:35.600Z,74119
2015-09-19T02:15:48.021Z,74120
2015-09-19T02:16:00.475Z,74126
2015-09-19T02:16:12.896Z,74117
2015-09-19T02:16:25.319Z,74126
2015-09-19T02:16:37.741Z,74122
2015-09-19T02:16:50.132Z,74123
2015-09-19T02:17:02.522Z,74120
2015-09-19T02:17:14.931Z,74121
2015-09-19T02:17:27.321Z,74119
2015-09-19T02:17:39.712Z,74116
2015-09-19T02:17:52.118Z,74124
2015-09-19T02:18:04.509Z,74125
2015-09-19T02:18:16.901Z,74119
2015-09-19T02:18:29.323Z,74127
2015-09-19T02:18:41.730Z,74114
2015-09-19T02:18:54.136Z,74121
2015-09-19T02:19:06.558Z,74117
2015-09-19T02:19:18.982Z,74120
2015-09-19T02:19:31.388Z,74115
2015-09-19T02:19:43.778Z,74125
2015-09-19T02:19:56.169Z,74116
2015-09-19T02:20:08.575Z,74116
2015-09-19T02:20:20.967Z,74113
2015-09-19T02:20:33.358Z,74120
2015-09-19T02:20:45.748Z,74116
2015-09-19T02:20:58.154Z,74117
2015-09-19T02:21:10.561Z,74118
2015-09-19T02:21:22.986Z,74117
2015-09-19T02:21:34.704Z,74121
2015-09-19T02:21:47.126Z,74112
2015-09-19T02:21:59.548Z,74118
2015-09-19T02:22:11.939Z,74119
2015-09-19T02:22:24.409Z,74107
2015-09-19T02:22:36.800Z,74121
2015-09-19T02:22:49.191Z,74111
2015-09-19T02:23:01.597Z,74119
2015-09-19T02:23:13.972Z,74118
2015-09-19T02:23:26.395Z,74113
2015-09-19T02:23:38.770Z,74123
2015-09-19T02:23:51.192Z,74108
2015-09-19T02:24:03.614Z,74118
2015-09-19T02:24:16.020Z,74109
2015-09-19T02:24:28.429Z,74113
2015-09-19T02:24:40.867Z,74121
2015-09-19T02:24:53.288Z,74115
2015-09-19T02:25:05.710Z,74121
2015-09-19T02:25:18.148Z,74110
2015-09-19T02:25:30.556Z,74117
2015-09-19T02:25:42.947Z,74115
2015-09-19T02:25:55.337Z,74117
2015-09-19T02:26:07.759Z,74115
2015-09-19T02:26:20.150Z,74118
2015-09-19T02:26:32.541Z,74119
2015-09-19T02:26:44.948Z,74117
2015-09-19T02:26:57.338Z,74117
2015-09-19T02:27:09.745Z,74114
2015-09-19T02:27:22.151Z,74119
2015-09-19T02:27:34.559Z,74121
2015-09-19T02:27:46.981Z,74115
2015-09-19T02:27:59.403Z,74118
2015-09-19T02:28:11.825Z,74117
2015-09-19T02:28:24.262Z,74112
2015-09-19T02:28:36.718Z,74121
2015-09-19T02:28:49.140Z,74115
2015-09-19T02:29:01.562Z,74116
2015-09-19T02:29:13.968Z,74117
2015-09-19T02:29:26.359Z,74118
2015-09-19T02:29:38.766Z,74115
2015-09-19T02:29:51.157Z,74117
2015-09-19T02:30:03.563Z,74112
2015-09-19T02:30:15.954Z,74120
2015-09-19T02:30:28.344Z,74114
2015-09-19T02:30:40.738Z,74123
2015-09-19T02:30:52.988Z,74121
2015-09-19T02:31:05.410Z,74114
2015-09-19T02:31:17.816Z,74122
2015-09-19T02:31:30.238Z,74118
2015-09-19T02:31:42.661Z,74122
2015-09-19T02:31:55.098Z,74117
2015-09-19T02:32:07.520Z,74121
2015-09-19T02:32:19.911Z,74119
2015-09-19T02:32:32.317Z,74125
2015-09-19T02:32:44.710Z,74121
2015-09-19T02:32:57.100Z,74124
2015-09-19T02:33:09.522Z,74121
2015-09-19T02:33:21.928Z,74127
2015-09-19T02:33:34.335Z,74118
2015-09-19T02:33:46.727Z,74123
2015-09-19T02:33:59.134Z,74122
2015-09-19T02:34:11.555Z,74123
2015-09-19T02:34:23.962Z,74124
2015-09-19T02:34:36.399Z,74120
2015-09-19T02:34:48.840Z,74126
2015-09-19T02:35:01.262Z,74125
2015-09-19T02:35:13.683Z,74122
2015-09-19T02:35:26.105Z,74120
2015-09-19T02:35:38.512Z,74123
2015-09-19T02:35:50.903Z,74123
2015-09-19T02:36:03.294Z,74120
2015-09-19T02:36:15.700Z,74122
2015-09-19T02:36:28.091Z,74127
2015-09-19T02:36:40.481Z,74122
2015-09-19T02:36:52.905Z,74118
2015-09-19T02:37:05.296Z,74124
2015-09-19T02:37:17.686Z,74121
2015-09-19T02:37:30.108Z,74121
2015-09-19T02:37:42.515Z,74123
2015-09-19T02:37:54.923Z,74124
2015-09-19T02:38:07.345Z,74124
2015-09-19T02:38:19.767Z,74122
2015-09-19T02:38:32.188Z,74119
2015-09-19T02:38:44.610Z,74121
2015-09-19T02:38:57.020Z,74123
2015-09-19T02:39:09.441Z,74124
2015-09-19T02:39:21.832Z,74123